Terminal Aerodrome Forecast
Issued by NWS

Home | Current Version | Previous Version | Text Only | Print | Product List | Glossary On
Versions: 1 2 3 4 5 6 7 8 9 10 11 12 13 14 15
000
FTUS42 KRAH 230529
TAFINT
TAF
KINT 230529Z 2306/2406 22008KT P6SM FEW100 FEW250
     FM231700 29004KT P6SM SCT040 BKN250
      TEMPO 2318/2321 3SM SHRA BKN050
     FM232100 36005KT P6SM OVC100=

USA.gov is the U.S. government's official web portal to all federal, state and local government web resources and services.